Flight Number: EUR2034 Duration: 0:50
Departure: Vienna Schwechat (LOWW) at 07:00 Distance: 192 Nm
Arrival: Munich Int'l (EDDM) at 07:50 Equipment: B737

Weather Information
Wien / Schwechat-Flughafen, Austria (LOWW) 48-07N 016-34E 190M Jan 22, 2018 - 02:50 AM EST / 2018.01.22 0750 UTC
Wind: Variable at 2 MPH (2 KT):0
Visibility: greater than 7 mile(s):0 Temperature: 28 F (-2 C) Dew Point: 24 F (-4 C) Relative Humidity: 86% Pressure (altimeter): 30.00 in. Hg (1016 hPa)
ob: LOWW 220750Z VRB02KT CAVOK M02/M04 Q1016 R88/19//95 BECMG 14007KT cycle: 8
Sunrise: 06:36 Sunset: 15:34 (UTC)

Munchen, Germany (EDDM) 48-21N 011-47E Jan 22, 2018 - 02:50 AM EST / 2018.01.22 0750 UTC
Wind: from the E (100 degrees) at 7 MPH (6 KT):0
Visibility: 1 mile(s):0
Sky conditions: overcast Weather: light snow Temperature: 30 F (-1 C)
Windchill: 23 F (-5 C):1 Dew Point: 28 F (-2 C) Relative Humidity: 92% Pressure (altimeter): 29.85 in. Hg (1011 hPa)
ob: EDDM 220750Z 10006KT 3200 -SN FEW006 OVC024 M01/M02 Q1011 R08R/290095 R08L/////// NOSIG cycle: 8
Sunrise: 06:56 Sunset: 15:52 (UTC)

TAF:2018/01/22 06:27 TAF EDDM 220500Z 2206/2312 10005KT 3000 -SN OVC007 TEMPO 2206/2207 1200 SN VV004 BECMG 2209/2211 24007KT 6000 TEMPO 2209/2211 -FZRA BECMG 2211/2214 BKN015 BECMG 2218/2221 BKN012 TEMPO 2220/2308 3000 -DZ OVC007 BECMG 2310/2312 BKN015

Previous Pireps for this route
Date Aircraft Flight time Fuel used Landing rate On time
2013-04-01B737150000No
2013-07-06B73700.575700-422No
2013-07-06B73701.008599-817No
2013-07-21B7370.5000No
2013-08-15B73701.016744-288No
2013-10-20B7371.0092540No
2014-03-31B73701.199380-574No
2014-04-03B73700.588004-338Charter
2014-06-28B73700.52-12-337No
2014-06-28B7370.5913800No
2015-01-13B73701.075609-153Yes
2015-03-12B73700.494943-86Yes
2015-03-28B73700.494149-273Yes
2015-04-04B73700.484345-256Yes
2015-04-05B73701.088560-479Yes
2015-04-06B73700.503379-138Yes
2015-06-23B7370.4649900Yes
2015-07-12B7370.5557050Yes
(pireps marked green are flown by you)

Route map